createdAt,value
2018-02-03T00:00:58.552Z,3.63
2018-02-03T00:03:26.067Z,3.57
2018-02-03T00:05:53.518Z,7.50
2018-02-03T00:08:20.998Z,3.93
2018-02-03T00:10:48.452Z,4.27
2018-02-03T00:13:15.974Z,5.70
2018-02-03T00:15:43.453Z,7.33
2018-02-03T00:18:10.911Z,3.60
2018-02-03T00:20:38.385Z,4.07
2018-02-03T00:23:05.868Z,6.23
2018-02-03T00:25:33.343Z,7.90
2018-02-03T00:28:00.880Z,2.70
2018-02-03T00:30:28.323Z,3.30
2018-02-03T00:32:55.792Z,4.80
2018-02-03T00:35:23.248Z,5.03
2018-02-03T00:37:50.718Z,2.90
2018-02-03T00:40:18.224Z,5.60
2018-02-03T00:42:45.677Z,6.57
2018-02-03T00:45:13.149Z,3.07
2018-02-03T00:47:40.616Z,2.50
2018-02-03T00:50:08.137Z,3.77
2018-02-03T00:52:35.584Z,3.80
2018-02-03T00:55:03.349Z,2.90
2018-02-03T00:57:30.809Z,4.50
2018-02-03T00:59:58.476Z,4.93
2018-02-03T01:02:25.958Z,3.73
2018-02-03T01:04:53.423Z,2.57
2018-02-03T01:07:20.896Z,4.20
2018-02-03T01:09:48.383Z,3.10
2018-02-03T01:12:15.978Z,3.43
2018-02-03T01:14:43.447Z,4.53
2018-02-03T01:17:10.896Z,7.00
2018-02-03T01:19:38.340Z,4.10
2018-02-03T01:22:05.823Z,3.60
2018-02-03T01:24:33.294Z,4.17
2018-02-03T01:27:00.769Z,3.83
2018-02-03T01:29:28.259Z,3.50
2018-02-03T01:31:55.694Z,3.83
2018-02-03T01:34:23.175Z,3.07
2018-02-03T01:36:50.624Z,3.40
2018-02-03T01:39:18.075Z,3.07
2018-02-03T01:41:45.619Z,3.10
2018-02-03T01:44:13.414Z,3.90
2018-02-03T01:46:40.875Z,6.10
2018-02-03T01:49:08.339Z,3.03
2018-02-03T01:51:35.785Z,4.63
2018-02-03T01:54:03.248Z,4.20
2018-02-03T01:56:30.704Z,5.00
2018-02-03T01:58:58.165Z,3.40
2018-02-03T02:01:25.624Z,2.93
2018-02-03T02:03:53.074Z,8.83
2018-02-03T02:06:20.582Z,3.27
2018-02-03T02:08:48.019Z,2.33
2018-02-03T02:11:15.466Z,2.70
2018-02-03T02:13:42.910Z,3.20
2018-02-03T02:16:10.371Z,3.03
2018-02-03T02:18:37.808Z,4.83
2018-02-03T02:21:05.306Z,2.93
2018-02-03T02:23:32.743Z,4.33
2018-02-03T02:26:00.178Z,2.40
2018-02-03T02:28:27.688Z,2.60
2018-02-03T02:30:55.141Z,2.47
2018-02-03T02:33:22.598Z,2.00
2018-02-03T02:35:50.061Z,3.03
2018-02-03T02:38:17.606Z,3.17
2018-02-03T02:40:45.023Z,2.60
2018-02-03T02:43:12.488Z,2.43
2018-02-03T02:45:39.941Z,3.60
2018-02-03T02:48:07.420Z,4.60
2018-02-03T02:50:34.926Z,2.23
2018-02-03T02:53:02.347Z,2.00
2018-02-03T02:55:29.807Z,2.27
2018-02-03T02:57:57.467Z,2.60
2018-02-03T03:00:24.931Z,2.80
2018-02-03T03:02:52.369Z,1.87
2018-02-03T03:05:19.827Z,5.20
2018-02-03T03:07:47.255Z,2.60
2018-02-03T03:10:14.722Z,2.10
2018-02-03T03:12:42.175Z,2.47
2018-02-03T03:15:09.748Z,2.93
2018-02-03T03:17:37.204Z,2.53
2018-02-03T03:20:04.662Z,1.87
2018-02-03T03:22:32.135Z,2.37
2018-02-03T03:24:59.605Z,1.90
2018-02-03T03:27:27.050Z,2.10
2018-02-03T03:29:54.510Z,2.10
2018-02-03T03:32:21.993Z,2.60
2018-02-03T03:34:49.483Z,2.50
2018-02-03T03:37:16.956Z,2.23
2018-02-03T03:39:44.427Z,3.10
2018-02-03T03:42:11.875Z,2.17
2018-02-03T03:44:39.334Z,3.10
2018-02-03T03:47:06.763Z,2.60
2018-02-03T03:49:34.379Z,2.30
2018-02-03T03:52:01.840Z,2.57
2018-02-03T03:54:29.287Z,1.83
2018-02-03T03:56:56.747Z,3.03
2018-02-03T03:59:24.231Z,2.03
2018-02-03T04:01:51.679Z,2.50
2018-02-03T04:04:19.127Z,2.20
2018-02-03T04:06:46.577Z,2.57
2018-02-03T04:09:14.015Z,3.53
2018-02-03T04:11:41.476Z,2.10
2018-02-03T04:14:08.936Z,2.80
2018-02-03T04:16:36.388Z,1.77
2018-02-03T04:19:03.904Z,2.57
2018-02-03T04:21:31.370Z,2.90
2018-02-03T04:23:58.879Z,3.43
2018-02-03T04:26:26.375Z,2.10
2018-02-03T04:28:53.852Z,4.10
2018-02-03T04:31:21.306Z,1.83
2018-02-03T04:33:48.751Z,2.50
2018-02-03T04:36:16.208Z,2.33
2018-02-03T04:38:43.666Z,4.50
2018-02-03T04:41:11.123Z,2.73
2018-02-03T04:43:38.578Z,3.47
2018-02-03T04:46:06.039Z,3.30
2018-02-03T04:48:33.491Z,2.23
2018-02-03T04:51:00.947Z,3.10
2018-02-03T04:53:28.404Z,3.10
2018-02-03T04:55:55.850Z,2.63
2018-02-03T04:58:23.305Z,2.60
2018-02-03T05:00:50.771Z,3.50
2018-02-03T05:03:18.201Z,3.60
2018-02-03T05:05:45.686Z,2.20
2018-02-03T05:08:13.430Z,4.03
2018-02-03T05:10:40.879Z,3.13
2018-02-03T05:13:08.355Z,2.67
2018-02-03T05:15:35.839Z,2.90
2018-02-03T05:18:03.304Z,2.83
2018-02-03T05:20:30.764Z,3.33
2018-02-03T05:22:58.214Z,2.93
2018-02-03T05:25:25.721Z,2.93
2018-02-03T05:27:53.199Z,4.50
2018-02-03T05:30:20.648Z,3.17
2018-02-03T05:32:48.117Z,3.33
2018-02-03T05:35:15.574Z,3.27
2018-02-03T05:37:43.063Z,3.30
2018-02-03T05:40:10.538Z,3.30
2018-02-03T05:42:37.997Z,3.67
2018-02-03T05:45:08.351Z,3.20
2018-02-03T05:47:35.828Z,4.20
2018-02-03T05:50:03.299Z,4.10
2018-02-03T05:52:30.953Z,4.57
2018-02-03T05:54:58.391Z,3.07
2018-02-03T05:57:25.868Z,3.80
2018-02-03T05:59:53.335Z,4.37
2018-02-03T06:02:20.912Z,4.57
2018-02-03T06:04:48.369Z,4.77
2018-02-03T06:07:15.837Z,3.90
2018-02-03T06:09:43.278Z,4.60
2018-02-03T06:12:10.767Z,4.77
2018-02-03T06:14:38.333Z,4.53
2018-02-03T06:17:05.900Z,4.70
2018-02-03T06:19:33.339Z,4.43
2018-02-03T06:22:00.810Z,4.67
2018-02-03T06:24:28.323Z,5.13
2018-02-03T06:26:55.773Z,4.57
2018-02-03T06:29:23.239Z,8.33
2018-02-03T06:31:50.721Z,5.17
2018-02-03T06:34:18.159Z,8.93
2018-02-03T06:36:45.639Z,6.77
2018-02-03T06:39:13.150Z,5.13
2018-02-03T06:41:41.354Z,7.10
2018-02-03T06:44:08.800Z,5.37
2018-02-03T06:46:36.321Z,5.10
2018-02-03T06:49:03.814Z,8.90
2018-02-03T06:51:31.264Z,6.33
2018-02-03T06:53:58.711Z,9.17
2018-02-03T06:56:26.190Z,6.93
2018-02-03T06:58:53.672Z,7.23
2018-02-03T07:01:21.132Z,6.60
2018-02-03T07:03:48.583Z,6.43
2018-02-03T07:06:16.062Z,6.50
2018-02-03T07:08:43.540Z,7.57
2018-02-03T07:11:10.988Z,6.40
2018-02-03T07:13:38.477Z,6.00
2018-02-03T07:16:06.012Z,10.00
2018-02-03T07:18:33.500Z,7.37
2018-02-03T07:21:00.967Z,7.63
2018-02-03T07:23:28.451Z,6.93
2018-02-03T07:25:57.036Z,6.50
2018-02-03T07:28:24.494Z,6.87
2018-02-03T07:30:51.984Z,7.10
2018-02-03T07:33:19.441Z,13.60
2018-02-03T07:35:46.899Z,7.37
2018-02-03T07:38:14.430Z,6.00
2018-02-03T07:40:41.879Z,7.63
2018-02-03T07:43:09.335Z,13.00
2018-02-03T07:45:36.813Z,8.87
2018-02-03T07:48:04.282Z,8.30
2018-02-03T07:50:31.778Z,9.10
2018-02-03T07:52:59.272Z,9.00
2018-02-03T07:55:26.748Z,6.50
2018-02-03T07:57:54.228Z,13.80
2018-02-03T08:00:21.748Z,7.00
2018-02-03T08:02:49.194Z,7.53
2018-02-03T08:05:16.666Z,7.23
2018-02-03T08:07:44.177Z,8.00
2018-02-03T08:10:11.618Z,10.97
2018-02-03T08:12:39.081Z,8.97
2018-02-03T08:15:06.547Z,8.60
2018-02-03T08:17:33.374Z,8.17
2018-02-03T08:20:00.919Z,10.13
2018-02-03T08:22:28.371Z,14.47
2018-02-03T08:24:55.852Z,15.17
2018-02-03T08:27:23.309Z,8.70
2018-02-03T08:29:50.785Z,9.53
2018-02-03T08:32:18.329Z,8.37
2018-02-03T08:34:45.785Z,7.77
2018-02-03T08:37:13.307Z,9.13
2018-02-03T08:39:40.781Z,7.37
2018-02-03T08:42:08.258Z,8.00
2018-02-03T08:44:35.723Z,6.80
2018-02-03T08:47:03.228Z,7.63
2018-02-03T08:49:30.722Z,8.93
2018-02-03T08:51:58.163Z,13.63
2018-02-03T08:54:25.623Z,7.63
2018-02-03T08:56:53.085Z,9.33
2018-02-03T08:59:20.546Z,13.90
2018-02-03T09:01:48.017Z,8.67
2018-02-03T09:04:15.503Z,10.10
2018-02-03T09:06:43.000Z,8.03
2018-02-03T09:09:10.476Z,7.37
2018-02-03T09:11:37.929Z,8.13
2018-02-03T09:14:05.462Z,6.80
2018-02-03T09:16:32.952Z,8.10
2018-02-03T09:19:00.422Z,8.63
2018-02-03T09:21:27.895Z,8.10
2018-02-03T09:23:55.372Z,8.73
2018-02-03T09:26:22.869Z,8.77
2018-02-03T09:28:50.375Z,13.63
2018-02-03T09:31:17.828Z,9.10
2018-02-03T09:33:45.303Z,8.33
2018-02-03T09:36:12.752Z,9.40
2018-02-03T09:38:40.260Z,8.17
2018-02-03T09:41:07.707Z,6.30
2018-02-03T09:43:35.163Z,13.03
2018-02-03T09:46:02.624Z,7.57
2018-02-03T09:48:30.104Z,8.77
2018-02-03T09:50:58.829Z,7.90
2018-02-03T09:53:26.328Z,8.10
2018-02-03T09:55:54.722Z,7.03
2018-02-03T09:58:22.210Z,9.67
2018-02-03T10:00:49.732Z,8.70
2018-02-03T10:03:17.209Z,10.80
2018-02-03T10:05:44.706Z,12.13
2018-02-03T10:08:12.188Z,9.67
2018-02-03T10:10:39.644Z,9.50
2018-02-03T10:13:07.110Z,15.43
2018-02-03T10:15:34.592Z,7.97
2018-02-03T10:18:02.071Z,9.23
2018-02-03T10:20:29.599Z,10.47
2018-02-03T10:22:57.060Z,8.90
2018-02-03T10:25:24.515Z,8.53
2018-02-03T10:27:51.977Z,8.40
2018-02-03T10:30:19.494Z,8.37
2018-02-03T10:32:47.029Z,10.30
2018-02-03T10:35:14.563Z,7.73
2018-02-03T10:37:42.038Z,10.73
2018-02-03T10:40:09.533Z,10.60
2018-02-03T10:42:37.148Z,8.43
2018-02-03T10:45:04.644Z,8.73
2018-02-03T10:47:32.111Z,10.00
2018-02-03T10:49:59.615Z,8.20
2018-02-03T10:52:27.103Z,7.53
2018-02-03T10:54:54.616Z,7.50
2018-02-03T10:57:22.107Z,7.93
2018-02-03T10:59:49.623Z,9.00
2018-02-03T11:02:17.094Z,9.40
2018-02-03T11:04:44.545Z,8.77
2018-02-03T11:07:12.033Z,10.70
2018-02-03T11:09:39.499Z,7.87
2018-02-03T11:12:06.958Z,8.30
2018-02-03T11:14:34.451Z,10.70
2018-02-03T11:17:01.929Z,9.87
2018-02-03T11:19:29.455Z,10.40
2018-02-03T11:21:56.967Z,12.57
2018-02-03T11:24:24.434Z,11.70
2018-02-03T11:26:51.909Z,10.67
2018-02-03T11:29:19.430Z,9.47
2018-02-03T11:31:46.927Z,8.13
2018-02-03T11:34:14.453Z,10.20
2018-02-03T11:36:41.925Z,10.77
2018-02-03T11:39:09.433Z,17.30
2018-02-03T11:41:36.931Z,11.70
2018-02-03T11:44:04.408Z,11.60
2018-02-03T11:46:31.906Z,11.93
2018-02-03T11:48:59.390Z,10.30
2018-02-03T11:51:26.831Z,9.27
2018-02-03T11:53:54.320Z,8.83
2018-02-03T11:56:21.799Z,10.17
2018-02-03T11:58:49.263Z,11.13
2018-02-03T12:01:16.758Z,14.53
2018-02-03T12:03:44.215Z,8.90
2018-02-03T12:06:11.670Z,10.40
2018-02-03T12:08:39.203Z,11.40
2018-02-03T12:11:06.706Z,9.63
2018-02-03T12:13:34.154Z,10.33
2018-02-03T12:16:01.676Z,11.13
2018-02-03T12:18:29.137Z,10.60
2018-02-03T12:20:56.615Z,10.07
2018-02-03T12:23:24.082Z,11.33
2018-02-03T12:25:51.593Z,10.00
2018-02-03T12:28:19.035Z,9.87
2018-02-03T12:30:46.520Z,10.30
2018-02-03T12:33:14.848Z,12.40
2018-02-03T12:35:42.315Z,10.23
2018-02-03T12:38:09.809Z,9.37
2018-02-03T12:40:37.333Z,10.23
2018-02-03T12:43:04.775Z,11.70
2018-02-03T12:45:32.290Z,14.23
2018-02-03T12:47:59.750Z,10.03
2018-02-03T12:50:27.204Z,12.33
2018-02-03T12:52:54.725Z,11.80
2018-02-03T12:55:22.192Z,10.53
2018-02-03T12:57:49.711Z,19.60
2018-02-03T13:00:17.179Z,9.27
2018-02-03T13:02:44.663Z,21.97
2018-02-03T13:05:12.178Z,13.93
2018-02-03T13:07:39.666Z,12.27
2018-02-03T13:10:07.176Z,11.70
2018-02-03T13:12:34.739Z,12.00
2018-02-03T13:15:02.203Z,12.60
2018-02-03T13:17:29.662Z,11.40
2018-02-03T13:19:57.203Z,17.13
2018-02-03T13:22:24.724Z,14.03
2018-02-03T13:24:52.227Z,13.33
2018-02-03T13:27:19.736Z,11.67
2018-02-03T13:29:47.197Z,13.10
2018-02-03T13:32:14.727Z,14.17
2018-02-03T13:34:42.243Z,14.77
2018-02-03T13:37:09.748Z,15.50
2018-02-03T13:39:37.232Z,12.90
2018-02-03T13:42:04.780Z,13.40
2018-02-03T13:44:32.255Z,10.97
2018-02-03T13:46:59.743Z,11.90
2018-02-03T13:49:27.268Z,16.40
2018-02-03T13:51:54.750Z,15.80
2018-02-03T13:54:22.250Z,12.67
2018-02-03T13:56:49.717Z,13.43
2018-02-03T13:59:17.186Z,13.73
2018-02-03T14:01:44.688Z,12.40
2018-02-03T14:04:12.188Z,11.20
2018-02-03T14:06:39.666Z,12.40
2018-02-03T14:09:07.134Z,15.73
2018-02-03T14:11:34.695Z,14.13
2018-02-03T14:14:02.180Z,13.17
2018-02-03T14:16:29.688Z,18.87
2018-02-03T14:18:57.170Z,17.60
2018-02-03T14:21:24.660Z,12.07
2018-02-03T14:23:57.554Z,16.97
2018-02-03T14:26:25.088Z,13.43
2018-02-03T14:28:52.570Z,14.40
2018-02-03T14:31:20.054Z,16.30
2018-02-03T14:33:47.579Z,15.03
2018-02-03T14:36:15.036Z,14.53
2018-02-03T14:38:42.496Z,11.63
2018-02-03T14:41:10.015Z,12.13
2018-02-03T14:43:37.529Z,13.80
2018-02-03T14:46:05.059Z,12.43
2018-02-03T14:48:32.535Z,12.03
2018-02-03T14:51:00.078Z,13.20
2018-02-03T14:53:27.555Z,16.67
2018-02-03T14:55:55.049Z,16.70
2018-02-03T14:58:22.603Z,17.33
2018-02-03T15:00:50.171Z,15.10
2018-02-03T15:03:17.659Z,14.70
2018-02-03T15:05:45.407Z,14.30
2018-02-03T15:08:12.887Z,14.83
2018-02-03T15:10:40.363Z,14.60
2018-02-03T15:13:07.895Z,16.53
2018-02-03T15:15:35.393Z,15.67
2018-02-03T15:18:03.909Z,19.90
2018-02-03T15:20:31.397Z,14.67
2018-02-03T15:22:58.858Z,15.40
2018-02-03T15:25:26.321Z,16.17
2018-02-03T15:27:53.798Z,23.10
2018-02-03T15:30:21.260Z,43.50
2018-02-03T15:32:48.714Z,55.43
2018-02-03T15:35:16.204Z,20.63
2018-02-03T15:37:43.698Z,21.50
2018-02-03T15:40:11.236Z,15.43
2018-02-03T15:42:38.729Z,15.90
2018-02-03T15:45:06.199Z,17.03
2018-02-03T15:47:33.687Z,15.33
2018-02-03T15:50:01.185Z,19.27
2018-02-03T15:52:28.754Z,16.47
2018-02-03T15:54:56.257Z,16.67
2018-02-03T15:57:23.763Z,21.17
2018-02-03T15:59:51.268Z,17.27
2018-02-03T16:02:18.732Z,19.13
2018-02-03T16:04:46.233Z,20.33
2018-02-03T16:07:13.739Z,16.83
2018-02-03T16:09:41.213Z,20.17
2018-02-03T16:12:08.983Z,23.30
2018-02-03T16:14:36.485Z,22.40
2018-02-03T16:17:03.986Z,19.40
2018-02-03T16:19:31.524Z,27.07
2018-02-03T16:21:58.999Z,26.03
2018-02-03T16:24:26.531Z,25.40
2018-02-03T16:26:54.040Z,20.67
2018-02-03T16:29:21.531Z,18.53
2018-02-03T16:31:49.057Z,25.87
2018-02-03T16:34:16.544Z,23.70
2018-02-03T16:36:44.004Z,19.07
2018-02-03T16:39:11.505Z,20.30
2018-02-03T16:41:38.967Z,20.53
2018-02-03T16:44:06.502Z,19.50
2018-02-03T16:46:34.098Z,23.70
2018-02-03T16:49:01.564Z,25.30
2018-02-03T16:51:29.044Z,31.47
2018-02-03T16:53:56.533Z,31.70
2018-02-03T16:56:35.702Z,26.77
2018-02-03T16:59:03.191Z,24.50
2018-02-03T17:01:30.667Z,25.20
2018-02-03T17:03:58.211Z,24.77
2018-02-03T17:06:25.835Z,26.27
2018-02-03T17:08:53.376Z,28.93
2018-02-03T17:11:20.927Z,23.47
2018-02-03T17:13:48.395Z,28.10
2018-02-03T17:16:15.871Z,36.13
2018-02-03T17:18:43.435Z,29.13
2018-02-03T17:21:10.908Z,29.93
2018-02-03T17:23:38.580Z,28.50
2018-02-03T17:26:06.143Z,27.30
2018-02-03T17:28:33.662Z,28.27
2018-02-03T17:31:01.185Z,30.00
2018-02-03T17:33:28.692Z,26.93
2018-02-03T17:35:56.147Z,30.47
2018-02-03T17:38:30.181Z,31.77
2018-02-03T17:40:57.677Z,29.47
2018-02-03T17:43:25.151Z,32.03
2018-02-03T17:48:55.678Z,29.27
2018-02-03T17:51:23.197Z,31.50
2018-02-03T17:53:50.680Z,26.40
2018-02-03T17:56:23.686Z,27.43
2018-02-03T17:58:51.195Z,26.83
2018-02-03T18:01:18.680Z,30.47
2018-02-03T18:03:46.194Z,27.97
2018-02-03T18:06:13.711Z,28.57
2018-02-03T18:08:41.290Z,30.67
2018-02-03T18:11:08.741Z,27.50
2018-02-03T18:13:36.239Z,29.67
2018-02-03T18:16:03.703Z,32.47
2018-02-03T18:18:31.200Z,28.50
2018-02-03T18:20:58.697Z,28.80
2018-02-03T18:23:26.203Z,27.50
2018-02-03T18:25:53.723Z,32.43
2018-02-03T18:28:21.208Z,31.13
2018-02-03T18:30:48.705Z,37.73
2018-02-03T18:33:16.166Z,34.27
2018-02-03T18:35:43.667Z,31.87
2018-02-03T18:38:11.168Z,28.73
2018-02-03T18:40:38.638Z,31.10
2018-02-03T18:43:06.141Z,33.50
2018-02-03T18:45:44.831Z,29.30
2018-02-03T18:48:12.338Z,29.60
2018-02-03T18:50:39.808Z,31.57
2018-02-03T18:53:07.326Z,28.87
2018-02-03T18:55:34.822Z,29.80
2018-02-03T18:58:02.344Z,27.67
2018-02-03T19:00:29.875Z,27.27
2018-02-03T19:02:57.441Z,33.13
2018-02-03T19:05:24.926Z,28.53
2018-02-03T19:07:52.435Z,31.83
2018-02-03T19:10:19.915Z,30.00
2018-02-03T19:12:47.378Z,26.93
2018-02-03T19:15:14.899Z,31.87
2018-02-03T19:17:42.397Z,33.30
2018-02-03T19:20:09.964Z,27.70
2018-02-03T19:22:37.439Z,29.43
2018-02-03T19:25:04.984Z,26.20
2018-02-03T19:27:32.533Z,28.53
2018-02-03T19:30:00.022Z,32.00
2018-02-03T19:32:27.523Z,27.93
2018-02-03T19:34:55.000Z,33.80
2018-02-03T19:37:22.563Z,32.93
2018-02-03T19:39:50.020Z,28.43
2018-02-03T19:42:17.482Z,30.37
2018-02-03T19:44:45.054Z,26.40
2018-02-03T19:47:12.581Z,27.47
2018-02-03T19:49:40.082Z,28.03
2018-02-03T19:52:07.609Z,28.93
2018-02-03T19:54:35.151Z,25.03
2018-02-03T19:57:02.635Z,28.83
2018-02-03T19:59:30.099Z,25.43
2018-02-03T20:01:57.608Z,29.00
2018-02-03T20:04:25.125Z,26.67
2018-02-03T20:06:52.583Z,26.53
2018-02-03T20:09:20.066Z,26.67
2018-02-03T20:11:47.605Z,23.60
2018-02-03T20:14:15.143Z,26.87
2018-02-03T20:16:42.640Z,25.00
2018-02-03T20:19:10.178Z,27.47
2018-02-03T20:21:37.681Z,26.80
2018-02-03T20:24:05.174Z,27.03
2018-02-03T20:26:32.741Z,23.07
2018-02-03T20:29:00.356Z,23.57
2018-02-03T20:31:27.837Z,25.40
2018-02-03T20:33:55.326Z,24.70
2018-02-03T20:36:22.784Z,24.90
2018-02-03T20:38:50.298Z,25.23
2018-02-03T20:41:17.816Z,26.40
2018-02-03T20:43:45.357Z,23.60
2018-02-03T20:46:12.918Z,25.00
2018-02-03T20:48:40.392Z,22.03
2018-02-03T20:51:07.900Z,24.60
2018-02-03T20:53:41.116Z,21.17
2018-02-03T20:56:08.688Z,23.00
2018-02-03T20:58:36.182Z,22.73
2018-02-03T21:01:03.696Z,24.03
2018-02-03T21:03:31.201Z,25.57
2018-02-03T21:05:58.745Z,21.97
2018-02-03T21:08:26.316Z,23.37
2018-02-03T21:10:53.853Z,20.13
2018-02-03T21:13:21.362Z,19.80
2018-02-03T21:15:48.825Z,19.13
2018-02-03T21:18:16.278Z,18.43
2018-02-03T21:20:43.766Z,20.30
2018-02-03T21:23:11.258Z,18.13
2018-02-03T21:25:38.786Z,19.97
2018-02-03T21:28:06.311Z,18.70
2018-02-03T21:30:33.800Z,18.73
2018-02-03T21:33:01.371Z,20.43
2018-02-03T21:35:28.963Z,18.17
2018-02-03T21:37:56.438Z,19.90
2018-02-03T21:40:23.968Z,19.97
2018-02-03T21:42:51.515Z,19.00
2018-02-03T21:45:19.041Z,19.10
2018-02-03T21:47:46.558Z,24.97
2018-02-03T21:50:14.104Z,24.80
2018-02-03T21:52:41.627Z,24.10
2018-02-03T21:55:09.124Z,22.80
2018-02-03T21:57:36.603Z,19.50
2018-02-03T22:00:04.145Z,24.83
2018-02-03T22:02:31.665Z,25.77
2018-02-03T22:04:59.147Z,19.93
2018-02-03T22:07:26.637Z,21.33
2018-02-03T22:09:54.143Z,25.93
2018-02-03T22:12:21.666Z,22.87
2018-02-03T22:14:49.171Z,24.47
2018-02-03T22:17:16.676Z,27.30
2018-02-03T22:19:44.179Z,23.93
2018-02-03T22:22:11.729Z,25.13
2018-02-03T22:24:39.281Z,23.80
2018-02-03T22:27:06.762Z,23.50
2018-02-03T22:29:34.239Z,24.60
2018-02-03T22:32:01.720Z,26.10
2018-02-03T22:34:29.221Z,30.03
2018-02-03T22:36:56.702Z,25.90
2018-02-03T22:39:24.236Z,25.00
2018-02-03T22:41:51.688Z,24.00
2018-02-03T22:44:19.181Z,21.20
2018-02-03T22:46:46.667Z,25.60
2018-02-03T22:49:14.170Z,26.83
2018-02-03T22:51:41.658Z,25.23
2018-02-03T22:54:09.231Z,24.70
2018-02-03T22:56:36.900Z,24.53
2018-02-03T22:59:04.363Z,25.90
2018-02-03T23:01:31.838Z,20.60
2018-02-03T23:03:59.359Z,20.60
2018-02-03T23:06:26.889Z,24.57
2018-02-03T23:08:54.367Z,23.13
2018-02-03T23:11:21.857Z,23.43
2018-02-03T23:13:49.321Z,19.73
2018-02-03T23:16:16.863Z,19.60
2018-02-03T23:18:44.331Z,21.33
2018-02-03T23:21:11.817Z,22.60
2018-02-03T23:23:39.340Z,19.40
2018-02-03T23:26:06.903Z,21.97
2018-02-03T23:28:34.463Z,27.50
2018-02-03T23:31:01.927Z,19.80
2018-02-03T23:33:29.454Z,19.57
2018-02-03T23:35:57.452Z,19.20
2018-02-03T23:38:24.965Z,22.00
2018-02-03T23:40:52.505Z,20.90
2018-02-03T23:43:19.994Z,19.13
2018-02-03T23:45:47.483Z,17.20
2018-02-03T23:48:14.966Z,22.20
2018-02-03T23:50:42.521Z,17.30
2018-02-03T23:53:10.032Z,20.90
2018-02-03T23:55:37.509Z,16.83
2018-02-03T23:58:04.970Z,24.50
